El Paso, TX (88520)

5:00 AM MST on January 30, 2015 (GMT -0700)
APRSWXNET El Paso TX US | Change Station
CLOSE
Current Station
Personal Weather Station
Location: El Paso, TX
Elevation: 4700 ft
Nearby Weather Stations

Elev 4700 ft 31.82 °N, 106.50 °W | Updated 34 minutes ago

Light Rain
Light Rain
40 °F
Feels Like 30 °F
N
20
Wind Variable Wind from NW
Gusts 26.0 mph

Today
High -- | Low -- °F
--% Chance of Precip.
Yesterday
High -- | Low -- °F
Precip. -- in
7:00 AM 5:38 PM
Waxing Gibbous, 82% visible
Pressure 30.19 in
Visibility 10.0 miles
Clouds Overcast 3000 ft
Windchill 30 °F
Dew Point 36 °F
Humidity 87%
Rainfall -999.00 in
Snow Depth Not available.
UV 0 out of 12
Pollen 5.00 out of 12
Air Quality Not available.
Flu Activity Not available.
METAR KELP 301151Z 03008KT 10SM -RA OVC030 06/03 A3027 RMK AO2 SLP224 P0005 60018 70018 T00560028 10100 20056 56013

More Conditions Fewer Conditions

Pressure 30.19 in
Visibility 10.0 miles
Clouds Overcast 3000 ft
Windchill 30 °F
Dew Point 36 °F
Humidity 87%
Rainfall -999.00 in
Snow Depth Not available.
UV 0 out of 12
Pollen 5.00 out of 12
Air Quality Not available.
Flu Activity Not available.
METAR KELP 301151Z 03008KT 10SM -RA OVC030 06/03 A3027 RMK AO2 SLP224 P0005 60018 70018 T00560028 10100 20056 56013

More Conditions Fewer Conditions

10-Day Weather Forecast

Almanac

Astronomy

Jan. 30, 2015 Rise Set
Actual Time
Civil Twilight
Nautical Twilight
Astronomical Twilight
Moon
Length of Visible Light
Length of Day
Tomorrow will be .
, % of the Moon is Illuminated

Today's Extremes

State Highs State Lows

Community

WunderPhotos

Upload Photos

1,791,738 photos uploaded!

WunderBlogs® & News

Nearby

Air Quality

  Air Quality AQ Index Pollutant
Not available.

Snow Depth

Station Depth Elevation

Earthquake Activity

City Distance Mag. Time & Date
Minimum magnitude displayed is 2.5.

Coastal Water Temperatures

Place Temperature

Nearby Weather Stations